Observations for ABERDEEN DYCE, United Kingdom (EGPD)

EGPD 180520Z AUTO 25009KT 9999 NCD 13/06 Q1007 NOSIG
EGPD 180450Z AUTO 25009KT 9999 NCD 13/06 Q1006 NOSIG
EGPD 180420Z AUTO 26010KT 9999 NCD 13/06 Q1006 NOSIG
EGPD 180350Z AUTO 23007KT 190V270 9999 NCD 13/07 Q1006 NOSIG
EGPD 180320Z AUTO 26008KT 200V290 9999 NCD 13/07 Q1006 NOSIG
EGPD 180250Z AUTO VRB05KT 9999 NCD 14/07 Q1006 NOSIG
EGPD 180220Z AUTO 25005KT 210V330 9999 NCD 14/09 Q1005 NOSIG
EGPD 180150Z AUTO 23007KT 9999 NCD 14/10 Q1005 NOSIG
EGPD 180120Z AUTO VRB03KT 9999 NCD 14/11 Q1005 NOSIG
EGPD 180050Z 18007KT 150V210 9999 FEW040 13/11 Q1005 NOSIG  
EGPD 180020Z 17007KT 9999 FEW037 13/11 Q1005 NOSIG  
EGPD 172350Z AUTO 20007KT 9999 FEW040 13/11 Q1005 NOSIG 
EGPD 172320Z AUTO 21010KT 9999 NCD 13/11 Q1005 NOSIG
EGPD 172250Z AUTO 17010KT 9999 NCD 13/11 Q1005 NOSIG
EGPD 172220Z AUTO 21012KT 9999 NCD 14/11 Q1005 NOSIG
EGPD 172150Z 21008KT 170V240 9999 SCT017 13/11 Q1005 NOSIG  
EGPD 172120Z 18006KT 130V210 9999 SCT018 13/11 Q1005 NOSIG  
EGPD 172050Z 18008KT 150V220 9999 SCT019 13/11 Q1006 NOSIG  
EGPD 172020Z AUTO 16007KT 9999 BKN024 13/11 Q1006 NOSIG 
EGPD 171950Z AUTO 17008KT 140V200 9999 -RA FEW037 13/11 Q1006 NOSIG 
EGPD 171920Z 18011KT 9000 -RA BKN031 13/10 Q1006 NOSIG  
EGPD 171850Z 18009KT 9999 BKN031 14/10 Q1006 NOSIG  
EGPD 171820Z AUTO 18013KT 9999 -RA BKN034/// //////TCU 15/10 Q1006 NOSIG
EGPD 171750Z AUTO 18013KT 9999 BKN034 15/10 Q1006 NOSIG 
EGPD 171720Z AUTO 20013KT 9999 SCT043 17/09 Q1006 NOSIG 
EGPD 171650Z AUTO 20016KT 9999 NCD 17/08 Q1006 NOSIG
EGPD 171620Z AUTO 20014KT 9999 NCD 18/08 Q1006 NOSIG
EGPD 171550Z AUTO 21014KT 9999 NCD 18/09 Q1007 NOSIG
EGPD 171520Z AUTO 21013KT 9999 NCD 18/09 Q1006 NOSIG
EGPD 171450Z AUTO 21013KT 9999 SCT043 19/09 Q1006 NOSIG 
EGPD 171420Z AUTO 24008KT 190V270 9999 FEW045 18/08 Q1007 NOSIG 
EGPD 171350Z AUTO 21009KT 9999 FEW047 18/08 Q1007 NOSIG 
EGPD 171320Z AUTO 21007KT 170V240 9999 FEW042 18/08 Q1007 NOSIG 
EGPD 171250Z AUTO 19005KT 140V250 9999 FEW041 18/09 Q1007   
EGPD 171220Z AUTO 17004KT 130V220 9999 FEW041 17/09 Q1007 NOSIG 
EGPD 171150Z AUTO VRB04KT 9999 FEW042 17/07 Q1007 NOSIG 
EGPD 171120Z AUTO 14005KT 080V240 9999 FEW035 16/08 Q1007 NOSIG 
EGPD 171050Z AUTO 16006KT 120V220 9999 FEW046 15/08 Q1007 NOSIG 
EGPD 171020Z AUTO 14007KT 9999 FEW046 16/09 Q1007 NOSIG 
EGPD 170950Z AUTO 15008KT 110V180 9999 FEW026 BKN036 OVC044 15/08 Q1007 NOSIG   
EGPD 170920Z 16006KT 110V190 9999 R16/1200 BKN034 BKN046 15/10 Q1008 NOSIG  
EGPD 170850Z AUTO 15006KT 110V180 1400 R16/1200 HZ FEW027 15/09 Q1008   
EGPD 170820Z 19005KT 160V240 9999 R16/1200 FEW030 14/08 Q1008 NOSIG 
EGPD 170750Z AUTO VRB03KT 9999 FEW029 14/09 Q1008 NOSIG 
EGPD 170720Z AUTO 23005KT 9999 NCD 12/09 Q1007 NOSIG
EGPD 170650Z AUTO 24007KT 9999 SCT027 12/09 Q1007 NOSIG 
EGPD 170620Z 18004KT 140V230 9999 BKN026 11/10 Q1007 NOSIG  
EGPD 170550Z 22005KT 9999 BKN023 11/09 Q1007 NOSIG  
EGPD 170520Z 19004KT 9999 4500NE PRFG BKN021 10/10 Q1007 NOSIG  
EGPD 170450Z 18002KT 9999 4500NE PRFG SCT022 10/09 Q1007 NOSIG